Portada
METAR-TAF:

METAR-TAF

Aeroports :

Nawabshah, Pakistan

latitud: 26-15N, longitud: 068-22E, altitud: 37 m

Observació

L'informe es va fer fa 38 minuts, a les 12:00 UTC
Vent 10 kt del Sud-Est
Temperatura 46°C
Humitat 31%
Pressió 1000 hPa
Visibilitat: 6000 m

METAR: OPNH 251200Z 13510KT 6000 NSC 46/25 Q1000 NOSIG

Hora: 17:38 (12:38 UTC)

Pronòstic

L'informe es va fer fa 3 hores i 8 minuts, a les 09:30 UTC
Pronòstic vàlid del 25 a les 12 UTC al 26 a les 18 UTC
Vent 8 kt del Sud amb ràfegues de 18 kt
Visibilitat: 5000 m
calitja
Evolucionant progressivament
l' 25 a les 18 UTC al 25 a les 20 UTC
Vent 7 kt del Sud/Sud-Est
Visibilitat: 4000 m
calitja
A partir de les 26 a les 0600 UTC
Vent 7 kt del Sud/Sud-Est amb ràfegues de 17 kt
Visibilitat: 6000 m

TAF: OPNH 250930Z 2512/2618 18008G18KT 5000 HZ NSC BECMG 2518/2520 16007KT 4000 HZ NSC FM260600 16007G17KT 6000 NSC

Observacions i pronòstics meteorològics de més de 4000 aeroports (METAR i TAF).

Les estacions disponibles són els punts grocs i vermells al mapa.

Posi el ratolí al punt desitjat per veure el nom de l'estació.

Feu clic per veure les observacions i els pronòstics meteorològics.

Per canviar el mapa: feu clic els botons verds amb una creu de color negre per apropar; al botó verd amb un guió per allunyar la imatge; o en les fletxes verdes per a mapes adjacents.


METAR-TAF: